createdAt,value
2022-10-18T00:02:05.744Z,16.77
2022-10-18T00:04:32.805Z,16.72
2022-10-18T00:06:59.465Z,16.67
2022-10-18T00:09:27.597Z,16.68
2022-10-18T00:11:55.156Z,16.64
2022-10-18T00:14:22.181Z,16.67
2022-10-18T00:16:48.657Z,16.67
2022-10-18T00:19:15.236Z,16.66
2022-10-18T00:21:42.097Z,16.63
2022-10-18T00:24:08.644Z,16.62
2022-10-18T00:26:35.134Z,16.63
2022-10-18T00:29:05.874Z,16.60
2022-10-18T00:31:37.645Z,16.58
2022-10-18T00:34:06.991Z,16.57
2022-10-18T00:36:34.479Z,16.62
2022-10-18T00:39:02.240Z,16.62
2022-10-18T00:41:30.889Z,16.58
2022-10-18T00:44:07.300Z,16.60
2022-10-18T00:46:36.233Z,16.54
2022-10-18T00:49:09.500Z,16.54
2022-10-18T00:51:46.847Z,16.60
2022-10-18T00:54:14.942Z,16.65
2022-10-18T00:56:41.818Z,16.60
2022-10-18T00:59:08.411Z,16.57
2022-10-18T01:01:34.947Z,16.53
2022-10-18T01:04:01.435Z,16.52
2022-10-18T01:06:29.076Z,16.52
2022-10-18T01:08:56.780Z,16.53
2022-10-18T01:11:36.197Z,16.52
2022-10-18T01:14:33.982Z,16.52
2022-10-18T01:17:29.331Z,16.54
2022-10-18T01:19:59.031Z,16.61
2022-10-18T01:22:49.715Z,16.59
2022-10-18T01:25:38.045Z,16.61
2022-10-18T01:28:39.989Z,16.56
2022-10-18T01:31:15.048Z,16.52
2022-10-18T01:33:42.849Z,16.50
2022-10-18T01:36:24.085Z,16.51
2022-10-18T01:38:53.785Z,16.52
2022-10-18T01:41:24.247Z,16.54
2022-10-18T01:43:56.087Z,16.58
2022-10-18T01:46:24.629Z,16.53
2022-10-18T01:48:53.574Z,16.50
2022-10-18T01:51:24.746Z,16.48
2022-10-18T01:53:51.268Z,16.52
2022-10-18T01:56:39.439Z,16.57
2022-10-18T01:59:24.399Z,16.63
2022-10-18T02:02:12.599Z,16.66
2022-10-18T02:04:42.009Z,16.64
2022-10-18T02:07:23.942Z,16.65
2022-10-18T02:10:35.140Z,16.66
2022-10-18T02:13:02.507Z,16.68
2022-10-18T02:15:41.273Z,16.55
2022-10-18T02:18:23.670Z,16.48
2022-10-18T02:20:51.821Z,16.41
2022-10-18T02:23:21.403Z,16.37
2022-10-18T02:25:47.995Z,16.25
2022-10-18T02:28:14.685Z,16.23
2022-10-18T02:30:49.631Z,16.26
2022-10-18T02:33:39.546Z,16.26
2022-10-18T02:36:23.235Z,16.25
2022-10-18T02:38:54.996Z,16.29
2022-10-18T02:41:28.358Z,16.29
2022-10-18T02:43:54.872Z,16.31
2022-10-18T02:46:21.475Z,16.27
2022-10-18T02:48:48.126Z,16.24
2022-10-18T02:51:14.977Z,16.21
2022-10-18T02:53:41.843Z,16.19
2022-10-18T02:56:08.984Z,16.18
2022-10-18T02:58:35.480Z,16.16
2022-10-18T03:01:02.040Z,16.15
2022-10-18T03:03:28.763Z,16.17
2022-10-18T03:05:55.255Z,16.12
2022-10-18T03:08:22.823Z,16.08
2022-10-18T03:10:49.374Z,16.07
2022-10-18T03:13:15.991Z,16.10
2022-10-18T03:15:42.707Z,16.12
2022-10-18T03:18:10.037Z,16.16
2022-10-18T03:20:36.691Z,16.18
2022-10-18T03:23:03.388Z,16.16
2022-10-18T03:25:29.903Z,16.16
2022-10-18T03:27:56.356Z,16.18
2022-10-18T03:30:22.886Z,16.21
2022-10-18T03:32:49.352Z,16.23
2022-10-18T03:35:16.223Z,16.27
2022-10-18T03:37:42.735Z,16.27
2022-10-18T03:40:09.492Z,16.30
2022-10-18T03:42:35.990Z,16.32
2022-10-18T03:45:02.466Z,16.36
2022-10-18T03:47:28.980Z,16.36
2022-10-18T03:49:57.212Z,16.32
2022-10-18T03:52:24.096Z,16.32
2022-10-18T03:54:50.550Z,16.27
2022-10-18T03:57:17.089Z,16.25
2022-10-18T03:59:43.600Z,16.24
2022-10-18T04:02:10.403Z,16.29
2022-10-18T04:04:36.867Z,16.31
2022-10-18T04:07:03.399Z,16.35
2022-10-18T04:09:29.965Z,16.35
2022-10-18T04:11:56.437Z,16.34
2022-10-18T04:14:22.943Z,16.32
2022-10-18T04:16:49.510Z,16.32
2022-10-18T04:19:16.164Z,16.28
2022-10-18T04:21:42.655Z,16.32
2022-10-18T04:24:09.165Z,16.39
2022-10-18T04:26:35.691Z,16.39
2022-10-18T04:29:02.270Z,16.37
2022-10-18T04:31:28.782Z,16.35
2022-10-18T04:33:55.352Z,16.41
2022-10-18T04:36:21.834Z,16.46
2022-10-18T04:38:48.409Z,16.40
2022-10-18T04:41:14.870Z,16.40
2022-10-18T04:43:41.431Z,16.43
2022-10-18T04:46:07.919Z,16.41
2022-10-18T04:48:34.402Z,16.41
2022-10-18T04:51:00.983Z,16.45
2022-10-18T04:53:27.633Z,16.46
2022-10-18T04:55:54.163Z,16.47
2022-10-18T04:58:20.627Z,16.41
2022-10-18T05:00:47.862Z,16.33
2022-10-18T05:03:15.023Z,16.34
2022-10-18T05:06:00.860Z,16.30
2022-10-18T05:08:28.459Z,16.31
2022-10-18T05:10:54.959Z,16.18
2022-10-18T05:13:21.518Z,16.18
2022-10-18T05:15:47.998Z,16.13
2022-10-18T05:18:14.590Z,15.88
2022-10-18T05:20:41.103Z,15.87
2022-10-18T05:23:10.832Z,15.85
2022-10-18T05:25:41.603Z,15.84
2022-10-18T05:28:15.648Z,15.77
2022-10-18T05:30:53.843Z,15.70
2022-10-18T05:33:20.362Z,15.69
2022-10-18T05:35:46.862Z,15.72
2022-10-18T05:38:13.358Z,15.73
2022-10-18T05:40:39.822Z,15.74
2022-10-18T05:43:06.292Z,15.69
2022-10-18T05:45:32.885Z,15.68
2022-10-18T05:47:59.390Z,15.72
2022-10-18T05:50:25.917Z,15.80
2022-10-18T05:53:02.694Z,15.81
2022-10-18T05:55:39.377Z,15.80
2022-10-18T05:58:05.970Z,15.92
2022-10-18T06:00:32.576Z,15.88
2022-10-18T06:03:00.390Z,15.76
2022-10-18T06:05:27.308Z,15.79
2022-10-18T06:07:53.942Z,15.72
2022-10-18T06:10:20.536Z,15.68
2022-10-18T06:12:47.021Z,15.64
2022-10-18T06:15:14.178Z,15.58
2022-10-18T06:17:40.706Z,15.50
2022-10-18T06:20:08.455Z,15.41
2022-10-18T06:22:35.007Z,15.33
2022-10-18T06:25:01.570Z,15.42
2022-10-18T06:27:28.108Z,15.46
2022-10-18T06:29:54.780Z,15.35
2022-10-18T06:32:21.285Z,15.21
2022-10-18T06:34:47.816Z,15.17
2022-10-18T06:37:14.297Z,15.16
2022-10-18T06:39:41.167Z,15.17
2022-10-18T06:42:07.879Z,15.20
2022-10-18T06:44:34.393Z,15.21
2022-10-18T06:47:01.128Z,15.20
2022-10-18T06:49:27.676Z,15.23
2022-10-18T06:51:54.657Z,15.29
2022-10-18T06:54:21.537Z,15.17
2022-10-18T06:56:48.100Z,15.14
2022-10-18T06:59:14.950Z,15.20
2022-10-18T07:01:41.614Z,15.19
2022-10-18T07:04:08.277Z,15.13
2022-10-18T07:06:34.780Z,15.28
2022-10-18T07:09:03.156Z,15.18
2022-10-18T07:11:29.760Z,15.15
2022-10-18T07:14:03.149Z,15.12
2022-10-18T07:16:30.428Z,15.14
2022-10-18T07:18:57.469Z,15.18
2022-10-18T07:21:25.570Z,15.14
2022-10-18T07:23:52.918Z,15.20
2022-10-18T07:26:26.075Z,15.23
2022-10-18T07:29:01.891Z,15.25
2022-10-18T07:31:29.418Z,15.30
2022-10-18T07:33:56.049Z,15.31
2022-10-18T07:36:22.901Z,15.35
2022-10-18T07:38:51.989Z,15.41
2022-10-18T07:41:19.350Z,15.41
2022-10-18T07:43:53.444Z,15.44
2022-10-18T07:46:22.499Z,15.48
2022-10-18T07:48:50.039Z,15.50
2022-10-18T07:51:17.922Z,15.53
2022-10-18T07:53:44.481Z,15.58
2022-10-18T07:56:21.228Z,15.62
2022-10-18T07:58:52.688Z,15.61
2022-10-18T08:01:21.253Z,15.65
2022-10-18T08:03:48.184Z,15.74
2022-10-18T08:06:16.607Z,15.74
2022-10-18T08:08:43.197Z,15.76
2022-10-18T08:11:19.872Z,15.81
2022-10-18T08:13:46.752Z,15.85
2022-10-18T08:16:16.164Z,15.88
2022-10-18T08:18:42.787Z,15.92
2022-10-18T08:21:11.640Z,15.93
2022-10-18T08:23:38.791Z,15.91
2022-10-18T08:26:08.639Z,15.84
2022-10-18T08:28:38.336Z,15.87
2022-10-18T08:31:13.173Z,15.92
2022-10-18T08:33:40.310Z,15.89
2022-10-18T08:36:08.950Z,15.88
2022-10-18T08:38:36.912Z,15.90
2022-10-18T08:41:28.395Z,15.89
2022-10-18T08:44:27.765Z,15.91
2022-10-18T08:47:19.642Z,15.92
2022-10-18T08:50:00.927Z,15.91
2022-10-18T08:52:45.141Z,15.82
2022-10-18T08:55:24.525Z,15.87
2022-10-18T08:57:51.627Z,15.82
2022-10-18T09:00:23.304Z,15.82
2022-10-18T09:02:54.783Z,15.91
2022-10-18T09:05:51.166Z,15.79
2022-10-18T09:08:29.945Z,15.81
2022-10-18T09:11:06.778Z,15.77
2022-10-18T09:14:03.595Z,15.69
2022-10-18T09:17:14.991Z,15.65
2022-10-18T09:20:11.964Z,15.68
2022-10-18T09:23:01.729Z,15.66
2022-10-18T09:25:45.677Z,15.67
2022-10-18T09:28:19.763Z,15.69
2022-10-18T09:31:15.368Z,15.64
2022-10-18T09:33:48.016Z,15.61
2022-10-18T09:36:20.916Z,15.68
2022-10-18T09:38:51.436Z,15.70
2022-10-18T09:41:26.888Z,15.73
2022-10-18T09:44:02.665Z,15.77
2022-10-18T09:46:38.768Z,15.80
2022-10-18T09:49:16.358Z,15.80
2022-10-18T09:51:45.029Z,15.79
2022-10-18T09:54:17.561Z,15.78
2022-10-18T09:56:51.524Z,15.76
2022-10-18T09:59:35.939Z,15.71
2022-10-18T10:02:03.023Z,15.76
2022-10-18T10:04:29.690Z,15.83
2022-10-18T10:06:59.480Z,15.90
2022-10-18T10:09:36.459Z,15.89
2022-10-18T10:12:03.275Z,15.94
2022-10-18T10:14:30.770Z,15.93
2022-10-18T10:17:05.859Z,15.86
2022-10-18T10:19:39.751Z,15.82
2022-10-18T10:22:09.574Z,15.84
2022-10-18T10:24:39.194Z,15.85
2022-10-18T10:27:15.517Z,15.90
2022-10-18T10:29:53.665Z,15.93
2022-10-18T10:32:22.550Z,15.93
2022-10-18T10:34:50.303Z,15.86
2022-10-18T10:37:23.013Z,15.94
2022-10-18T10:40:17.917Z,15.85
2022-10-18T10:42:59.948Z,15.82
2022-10-18T10:45:55.159Z,15.93
2022-10-18T10:48:22.334Z,15.97
2022-10-18T10:51:22.803Z,15.97
2022-10-18T10:53:57.729Z,16.03
2022-10-18T10:56:30.351Z,16.07
2022-10-18T10:59:06.948Z,16.07
2022-10-18T11:01:34.179Z,16.05
2022-10-18T11:04:30.552Z,16.00
2022-10-18T11:07:05.939Z,16.02
2022-10-18T11:09:41.650Z,16.06
2022-10-18T11:12:30.783Z,16.12
2022-10-18T11:15:12.478Z,16.11
2022-10-18T11:18:08.274Z,16.13
2022-10-18T11:20:47.193Z,15.93
2022-10-18T11:23:16.039Z,15.88
2022-10-18T11:25:45.665Z,15.77
2022-10-18T11:28:31.079Z,15.65
2022-10-18T11:31:15.509Z,15.45
2022-10-18T11:34:11.222Z,15.36
2022-10-18T11:37:15.594Z,15.47
2022-10-18T11:40:16.908Z,15.47
2022-10-18T11:42:58.455Z,15.59
2022-10-18T11:48:10.008Z,15.81
2022-10-18T11:50:51.726Z,15.80
2022-10-18T11:53:29.499Z,15.88
2022-10-18T11:56:19.978Z,16.08
2022-10-18T11:58:49.410Z,15.91
2022-10-18T12:01:38.762Z,15.98
2022-10-18T12:04:14.961Z,16.01
2022-10-18T12:06:45.285Z,16.05
2022-10-18T12:09:17.979Z,16.00
2022-10-18T12:11:55.492Z,16.15
2022-10-18T12:14:30.221Z,16.11
2022-10-18T12:17:40.186Z,16.18
2022-10-18T12:20:10.593Z,16.32
2022-10-18T12:22:47.462Z,16.45
2022-10-18T12:25:16.280Z,16.36
2022-10-18T12:27:56.787Z,16.41
2022-10-18T12:30:31.210Z,16.39
2022-10-18T12:33:27.320Z,16.40
2022-10-18T12:36:13.557Z,16.26
2022-10-18T12:38:43.711Z,16.26
2022-10-18T12:41:32.207Z,16.37
2022-10-18T12:44:17.562Z,16.32
2022-10-18T12:46:52.079Z,16.48
2022-10-18T12:49:41.407Z,16.50
2022-10-18T12:52:33.941Z,16.48
2022-10-18T12:55:19.328Z,16.53
2022-10-18T12:57:51.816Z,16.59
2022-10-18T13:00:30.217Z,16.69
2022-10-18T13:03:18.227Z,16.76
2022-10-18T13:05:56.223Z,16.77
2022-10-18T13:08:29.220Z,16.80
2022-10-18T13:11:01.957Z,16.84
2022-10-18T13:13:59.106Z,16.90
2022-10-18T13:16:49.037Z,16.94
2022-10-18T13:19:33.941Z,17.02
2022-10-18T13:22:09.287Z,17.12
2022-10-18T13:24:44.625Z,17.15
2022-10-18T13:27:42.157Z,17.24
2022-10-18T13:30:27.222Z,17.31
2022-10-18T13:33:02.808Z,17.23
2022-10-18T13:35:38.327Z,17.23
2022-10-18T13:38:26.530Z,17.13
2022-10-18T13:41:14.513Z,17.06
2022-10-18T13:43:53.471Z,17.06
2022-10-18T13:46:44.306Z,16.99
2022-10-18T13:49:14.740Z,17.07
2022-10-18T13:51:59.312Z,17.17
2022-10-18T13:54:59.737Z,17.12
2022-10-18T13:57:47.577Z,17.15
2022-10-18T14:00:35.421Z,17.18
2022-10-18T14:03:56.224Z,17.21
2022-10-18T14:06:45.071Z,17.22
2022-10-18T14:09:55.021Z,17.31
2022-10-18T14:12:32.584Z,17.28
2022-10-18T14:15:27.218Z,17.28
2022-10-18T14:18:01.614Z,17.21
2022-10-18T14:20:55.492Z,17.09
2022-10-18T14:23:43.429Z,17.04
2022-10-18T14:26:19.047Z,17.06
2022-10-18T14:29:01.445Z,17.04
2022-10-18T14:31:28.253Z,16.99
2022-10-18T14:33:58.413Z,17.03
2022-10-18T14:36:29.475Z,17.06
2022-10-18T14:39:02.096Z,17.06
2022-10-18T14:41:31.023Z,17.05
2022-10-18T14:44:16.614Z,16.97
2022-10-18T14:46:49.243Z,16.99
2022-10-18T14:49:17.549Z,17.06
2022-10-18T14:51:46.714Z,17.06
2022-10-18T14:54:30.698Z,17.09
2022-10-18T14:56:59.833Z,17.09
2022-10-18T14:59:37.708Z,17.14
2022-10-18T15:02:16.040Z,17.14
2022-10-18T15:04:46.356Z,17.11
2022-10-18T15:07:15.786Z,17.01
2022-10-18T15:09:43.530Z,16.95
2022-10-18T15:12:13.516Z,16.90
2022-10-18T15:14:41.335Z,16.77
2022-10-18T15:17:15.467Z,16.75
2022-10-18T15:19:55.003Z,16.73
2022-10-18T15:22:31.619Z,16.71
2022-10-18T15:25:14.925Z,16.72
2022-10-18T15:27:45.323Z,16.72
2022-10-18T15:30:25.678Z,16.67
2022-10-18T15:32:54.915Z,16.66
2022-10-18T15:35:33.425Z,16.68
2022-10-18T15:38:12.776Z,16.65
2022-10-18T15:40:40.359Z,16.60
2022-10-18T15:43:26.795Z,16.66
2022-10-18T15:46:01.640Z,16.59
2022-10-18T15:48:38.121Z,16.54
2022-10-18T15:51:48.086Z,16.53
2022-10-18T15:54:19.306Z,16.44
2022-10-18T15:56:46.054Z,16.40
2022-10-18T15:59:50.738Z,16.36
2022-10-18T16:02:17.395Z,16.25
2022-10-18T16:04:43.980Z,16.20
2022-10-18T16:07:11.975Z,16.10
2022-10-18T16:09:38.618Z,15.96
2022-10-18T16:12:05.498Z,15.91
2022-10-18T16:14:32.241Z,15.85
2022-10-18T16:17:01.046Z,15.81
2022-10-18T16:19:28.097Z,15.81
2022-10-18T16:21:55.131Z,15.74
2022-10-18T16:24:23.044Z,15.64
2022-10-18T16:26:49.851Z,15.63
2022-10-18T16:29:21.706Z,15.57
2022-10-18T16:31:48.412Z,15.46
2022-10-18T16:34:14.928Z,15.36
2022-10-18T16:36:41.727Z,15.29
2022-10-18T16:39:14.896Z,15.22
2022-10-18T16:41:41.631Z,15.07
2022-10-18T16:44:08.151Z,14.99
2022-10-18T16:46:35.665Z,14.97
2022-10-18T16:49:02.999Z,14.93
2022-10-18T16:51:29.545Z,14.88
2022-10-18T16:53:56.131Z,14.84
2022-10-18T16:56:30.624Z,14.77
2022-10-18T16:58:58.579Z,14.69
2022-10-18T17:01:25.881Z,14.67
2022-10-18T17:03:53.513Z,14.67
2022-10-18T17:06:21.967Z,14.63
2022-10-18T17:08:48.921Z,14.70
2022-10-18T17:11:20.562Z,14.62
2022-10-18T17:13:47.369Z,14.58
2022-10-18T17:16:21.426Z,14.52
2022-10-18T17:18:47.968Z,14.47
2022-10-18T17:21:14.538Z,14.40
2022-10-18T17:23:41.043Z,14.31
2022-10-18T17:26:27.725Z,14.30
2022-10-18T17:28:59.260Z,14.31
2022-10-18T17:31:25.888Z,14.22
2022-10-18T17:33:54.717Z,14.20
2022-10-18T17:36:22.215Z,14.17
2022-10-18T17:38:53.513Z,14.17
2022-10-18T17:41:20.690Z,14.17
2022-10-18T17:43:48.508Z,14.20
2022-10-18T17:46:15.966Z,14.23
2022-10-18T17:48:42.727Z,14.29
2022-10-18T17:51:11.357Z,14.33
2022-10-18T17:53:38.068Z,14.35
2022-10-18T17:56:05.731Z,14.38
2022-10-18T17:58:32.477Z,14.42
2022-10-18T18:01:11.409Z,14.48
2022-10-18T18:03:38.120Z,14.56
2022-10-18T18:06:36.924Z,14.55
2022-10-18T18:09:10.447Z,14.55
2022-10-18T18:11:40.151Z,14.60
2022-10-18T18:14:10.738Z,14.58
2022-10-18T18:16:43.114Z,14.54
2022-10-18T18:19:10.377Z,14.55
2022-10-18T18:21:41.153Z,14.60
2022-10-18T18:24:08.302Z,14.66
2022-10-18T18:26:36.178Z,14.73
2022-10-18T18:31:34.326Z,14.65
2022-10-18T18:34:05.212Z,14.56
2022-10-18T18:36:32.599Z,14.51
2022-10-18T18:38:59.548Z,14.41
2022-10-18T18:41:27.670Z,14.30
2022-10-18T18:44:03.362Z,14.27
2022-10-18T18:46:33.327Z,14.22
2022-10-18T18:49:00.548Z,14.21
2022-10-18T18:51:27.331Z,14.19
2022-10-18T18:53:54.310Z,14.21
2022-10-18T18:56:25.304Z,14.25
2022-10-18T18:58:53.315Z,14.29
2022-10-18T19:01:22.886Z,14.29
2022-10-18T19:03:51.941Z,14.30
2022-10-18T19:06:24.433Z,14.28
2022-10-18T19:08:54.335Z,14.23
2022-10-18T19:11:22.776Z,14.26
2022-10-18T19:13:49.809Z,14.14
2022-10-18T19:16:28.661Z,14.16
2022-10-18T19:19:06.233Z,14.12
2022-10-18T19:21:35.700Z,14.14
2022-10-18T19:24:03.418Z,14.20
2022-10-18T19:26:45.686Z,14.19
2022-10-18T19:29:16.656Z,14.22
2022-10-18T19:31:43.973Z,14.26
2022-10-18T19:34:12.654Z,14.31
2022-10-18T19:36:41.944Z,14.26
2022-10-18T19:39:12.134Z,14.18
2022-10-18T19:41:38.839Z,14.11
2022-10-18T19:44:05.784Z,14.07
2022-10-18T19:46:32.714Z,13.98
2022-10-18T19:48:59.365Z,13.94
2022-10-18T19:51:28.297Z,13.89
2022-10-18T19:53:56.593Z,13.87
2022-10-18T19:56:24.771Z,13.85
2022-10-18T19:58:51.755Z,13.83
2022-10-18T20:01:19.537Z,13.80
2022-10-18T20:03:47.265Z,13.72
2022-10-18T20:06:13.944Z,13.61
2022-10-18T20:11:13.369Z,13.52
2022-10-18T20:13:40.698Z,13.44
2022-10-18T20:16:09.084Z,13.32
2022-10-18T20:18:36.184Z,13.25
2022-10-18T20:21:07.607Z,13.18
2022-10-18T20:23:39.071Z,13.18
2022-10-18T20:26:08.304Z,13.24
2022-10-18T20:28:35.251Z,13.21
2022-10-18T20:31:04.510Z,13.13
2022-10-18T20:33:32.165Z,13.01
2022-10-18T20:36:18.939Z,12.88
2022-10-18T20:38:48.105Z,12.79
2022-10-18T20:41:26.261Z,12.74
2022-10-18T20:43:58.458Z,12.66
2022-10-18T20:46:25.677Z,12.61
2022-10-18T20:48:54.256Z,12.51
2022-10-18T20:51:21.720Z,12.49
2022-10-18T20:53:48.615Z,12.46
2022-10-18T20:56:20.987Z,12.57
2022-10-18T20:58:51.987Z,12.57
2022-10-18T21:01:27.439Z,12.51
2022-10-18T21:03:56.179Z,12.46
2022-10-18T21:06:28.366Z,12.43
2022-10-18T21:08:56.319Z,12.32
2022-10-18T21:11:23.651Z,12.26
2022-10-18T21:13:55.558Z,12.29
2022-10-18T21:16:22.185Z,12.26
2022-10-18T21:18:48.970Z,12.22
2022-10-18T21:21:18.766Z,12.21
2022-10-18T21:23:46.518Z,12.14
2022-10-18T21:26:22.496Z,12.06
2022-10-18T21:28:53.958Z,12.01
2022-10-18T21:31:23.627Z,12.01
2022-10-18T21:33:59.697Z,12.02
2022-10-18T21:36:27.991Z,12.00
2022-10-18T21:38:54.614Z,11.88
2022-10-18T21:41:22.312Z,11.85
2022-10-18T21:43:51.416Z,11.72
2022-10-18T21:46:20.272Z,11.71
2022-10-18T21:48:49.640Z,11.69
2022-10-18T21:51:18.499Z,11.64
2022-10-18T21:53:46.867Z,11.62
2022-10-18T21:56:19.688Z,11.58
2022-10-18T21:58:46.518Z,11.53
2022-10-18T22:01:17.514Z,11.46
2022-10-18T22:03:45.567Z,11.38
2022-10-18T22:06:14.847Z,11.35
2022-10-18T22:08:45.193Z,11.28
2022-10-18T22:11:12.395Z,11.31
2022-10-18T22:13:39.353Z,11.25
2022-10-18T22:16:07.471Z,11.29
2022-10-18T22:18:35.147Z,11.31
2022-10-18T22:21:05.153Z,11.28
2022-10-18T22:23:37.311Z,11.30
2022-10-18T22:26:11.927Z,11.23
2022-10-18T22:28:40.392Z,11.15
2022-10-18T22:31:14.144Z,11.14
2022-10-18T22:33:40.844Z,11.22
2022-10-18T22:36:07.613Z,11.16
2022-10-18T22:38:35.157Z,11.04
2022-10-18T22:41:10.057Z,10.99
2022-10-18T22:43:37.541Z,10.94
2022-10-18T22:46:06.976Z,10.91
2022-10-18T22:48:34.137Z,10.92
2022-10-18T22:51:01.190Z,10.97
2022-10-18T22:53:28.134Z,10.96
2022-10-18T22:55:55.082Z,11.03
2022-10-18T22:58:21.876Z,11.01
2022-10-18T23:00:48.518Z,10.97
2022-10-18T23:03:16.996Z,10.98
2022-10-18T23:05:45.322Z,10.90
2022-10-18T23:08:13.809Z,10.88
2022-10-18T23:10:42.094Z,10.83
2022-10-18T23:13:09.294Z,10.86
2022-10-18T23:15:36.074Z,10.85
2022-10-18T23:18:02.684Z,10.76
2022-10-18T23:20:29.335Z,10.65
2022-10-18T23:22:55.921Z,10.66
2022-10-18T23:25:22.672Z,10.62
2022-10-18T23:27:50.053Z,10.63
2022-10-18T23:30:17.961Z,10.62
2022-10-18T23:32:44.609Z,10.54
2022-10-18T23:35:11.290Z,10.53
2022-10-18T23:37:38.043Z,10.57
2022-10-18T23:40:05.108Z,10.49
2022-10-18T23:42:31.706Z,10.42
2022-10-18T23:44:58.294Z,10.35
2022-10-18T23:47:24.952Z,10.43
2022-10-18T23:49:51.546Z,10.42
2022-10-18T23:52:18.274Z,10.34
2022-10-18T23:57:12.309Z,10.13
2022-10-18T23:59:39.053Z,10.15
